createdAt,value
2018-04-12T00:01:15.766Z,36.43
2018-04-12T00:03:44.352Z,36.17
2018-04-12T00:06:13.715Z,33.83
2018-04-12T00:08:45.057Z,32.00
2018-04-12T00:11:14.387Z,35.47
2018-04-12T00:13:47.195Z,32.80
2018-04-12T00:16:16.600Z,33.77
2018-04-12T00:18:49.790Z,32.83
2018-04-12T00:21:18.346Z,35.53
2018-04-12T00:23:51.788Z,33.00
2018-04-12T00:26:21.826Z,35.17
2018-04-12T00:28:55.248Z,32.90
2018-04-12T00:31:24.681Z,38.00
2018-04-12T00:33:57.373Z,32.37
2018-04-12T00:36:26.360Z,32.73
2018-04-12T00:38:59.397Z,31.73
2018-04-12T00:41:28.707Z,32.57
2018-04-12T00:44:02.642Z,30.40
2018-04-12T00:46:31.201Z,31.23
2018-04-12T00:49:05.872Z,28.80
2018-04-12T00:51:35.396Z,31.60
2018-04-12T00:54:09.536Z,32.97
2018-04-12T00:56:38.426Z,35.10
2018-04-12T00:59:11.144Z,37.07
2018-04-12T01:01:41.465Z,38.93
2018-04-12T01:04:13.868Z,31.53
2018-04-12T01:06:42.806Z,27.97
2018-04-12T01:09:16.826Z,30.53
2018-04-12T01:11:46.699Z,28.80
2018-04-12T01:14:17.509Z,30.77
2018-04-12T01:16:47.121Z,28.93
2018-04-12T01:19:20.481Z,30.50
2018-04-12T01:21:49.431Z,29.77
2018-04-12T01:24:21.809Z,35.90
2018-04-12T01:26:52.106Z,35.40
2018-04-12T01:29:24.980Z,42.50
2018-04-12T01:31:53.553Z,39.47
2018-04-12T01:34:27.190Z,47.27
2018-04-12T01:36:56.437Z,63.27
2018-04-12T01:39:30.388Z,40.70
2018-04-12T01:41:58.929Z,41.70
2018-04-12T01:44:32.659Z,38.23
2018-04-12T01:47:01.154Z,41.33
2018-04-12T01:49:34.291Z,37.67
2018-04-12T01:52:03.033Z,32.67
2018-04-12T01:54:36.372Z,33.40
2018-04-12T01:57:06.010Z,36.53
2018-04-12T01:59:39.545Z,34.43
2018-04-12T02:02:08.057Z,33.03
2018-04-12T02:04:41.244Z,30.13
2018-04-12T02:07:11.110Z,33.50
2018-04-12T02:09:44.200Z,32.23
2018-04-12T02:12:12.793Z,30.23
2018-04-12T02:14:46.005Z,32.30
2018-04-12T02:17:16.044Z,31.33
2018-04-12T02:19:49.030Z,30.97
2018-04-12T02:22:17.872Z,30.33
2018-04-12T02:24:51.201Z,30.70
2018-04-12T02:27:20.769Z,27.80
2018-04-12T02:30:02.025Z,28.77
2018-04-12T02:32:31.164Z,29.33
2018-04-12T02:34:59.692Z,28.27
2018-04-12T02:37:28.205Z,27.40
2018-04-12T02:39:58.158Z,24.17
2018-04-12T02:42:27.888Z,22.07
2018-04-12T02:45:01.217Z,18.27
2018-04-12T02:47:30.093Z,18.77
2018-04-12T02:50:12.452Z,18.43
2018-04-12T02:52:42.416Z,16.57
2018-04-12T02:55:10.917Z,16.63
2018-04-12T02:57:40.907Z,17.27
2018-04-12T03:00:10.728Z,17.80
2018-04-12T03:02:39.214Z,17.50
2018-04-12T03:05:11.329Z,18.40
2018-04-12T03:07:41.236Z,19.53
2018-04-12T03:10:15.660Z,19.50
2018-04-12T03:12:45.214Z,19.53
2018-04-12T03:15:15.637Z,19.00
2018-04-12T03:17:44.166Z,19.80
2018-04-12T03:20:17.637Z,19.93
2018-04-12T03:22:46.130Z,19.87
2018-04-12T03:25:28.848Z,22.03
2018-04-12T03:27:57.389Z,25.70
2018-04-12T03:30:25.943Z,19.83
2018-04-12T03:32:56.219Z,21.80
2018-04-12T03:35:24.733Z,23.53
2018-04-12T03:37:54.001Z,23.33
2018-04-12T03:40:25.991Z,22.23
2018-04-12T03:42:54.474Z,21.87
2018-04-12T03:45:28.329Z,25.17
2018-04-12T03:47:57.133Z,21.93
2018-04-12T03:50:29.995Z,22.17
2018-04-12T03:52:59.357Z,21.40
2018-04-12T03:55:33.205Z,20.87
2018-04-12T03:58:01.688Z,21.63
2018-04-12T04:00:35.218Z,22.47
2018-04-12T04:03:03.713Z,22.37
2018-04-12T04:05:38.421Z,26.33
2018-04-12T04:08:07.185Z,22.53
2018-04-12T04:10:48.663Z,22.97
2018-04-12T04:13:19.009Z,21.50
2018-04-12T04:18:01.406Z,21.30
2018-04-12T04:21:06.787Z,20.57
2018-04-12T04:23:36.316Z,20.30
2018-04-12T04:26:06.448Z,22.27
2018-04-12T04:28:36.065Z,21.80
2018-04-12T04:31:04.591Z,22.07
2018-04-12T04:33:33.477Z,22.40
2018-04-12T04:36:01.962Z,19.03
2018-04-12T04:38:31.280Z,20.37
2018-04-12T04:41:00.062Z,19.97
2018-04-12T04:43:28.955Z,19.10
2018-04-12T04:45:57.834Z,20.53
2018-04-12T04:48:26.601Z,20.07
2018-04-12T04:51:09.505Z,21.43
2018-04-12T04:53:38.359Z,19.90
2018-04-12T04:56:07.923Z,19.67
2018-04-12T04:58:36.844Z,22.50
2018-04-12T05:01:06.470Z,22.50
2018-04-12T05:03:37.954Z,20.80
2018-04-12T05:06:09.209Z,20.30
2018-04-12T05:08:38.489Z,19.80
2018-04-12T05:11:11.714Z,20.57
2018-04-12T05:13:41.004Z,20.77
2018-04-12T05:16:13.545Z,21.80
2018-04-12T05:18:43.122Z,21.17
2018-04-12T05:21:15.709Z,21.30
2018-04-12T05:23:46.136Z,19.50
2018-04-12T05:26:17.909Z,18.27
2018-04-12T05:28:47.800Z,19.87
2018-04-12T05:31:20.204Z,22.77
2018-04-12T05:33:49.789Z,22.67
2018-04-12T05:36:23.166Z,21.00
2018-04-12T05:38:52.493Z,20.57
2018-04-12T05:41:23.590Z,20.47
2018-04-12T05:43:52.089Z,21.63
2018-04-12T05:46:26.104Z,21.17
2018-04-12T05:48:56.116Z,18.70
2018-04-12T05:51:27.951Z,19.07
2018-04-12T05:53:56.460Z,21.23
2018-04-12T05:56:30.390Z,21.10
2018-04-12T05:58:59.956Z,20.23
2018-04-12T06:01:32.170Z,20.47
2018-04-12T06:04:01.509Z,22.73
2018-04-12T06:06:34.929Z,22.33
2018-04-12T06:22:16.187Z,24.63
2018-04-12T06:24:46.612Z,23.83
2018-04-12T06:27:17.054Z,23.07
2018-04-12T06:29:47.612Z,22.17
2018-04-12T06:32:16.932Z,23.10
2018-04-12T06:34:49.318Z,21.73
2018-04-12T06:37:17.869Z,21.37
2018-04-12T06:39:51.428Z,23.13
2018-04-12T06:42:21.329Z,22.17
2018-04-12T06:44:55.061Z,25.57
2018-04-12T06:47:23.613Z,29.13
2018-04-12T06:49:57.161Z,28.47
2018-04-12T06:52:26.065Z,30.37
2018-04-12T06:55:00.059Z,31.63
2018-04-12T06:57:29.946Z,27.80
2018-04-12T07:00:01.462Z,30.30
2018-04-12T07:02:31.869Z,33.53
2018-04-12T07:05:03.910Z,34.07
2018-04-12T07:07:33.191Z,40.37
2018-04-12T07:10:06.860Z,37.37
2018-04-12T07:12:37.118Z,35.43
2018-04-12T07:15:18.885Z,38.87
2018-04-12T07:17:48.354Z,41.03
2018-04-12T07:20:19.306Z,39.47
2018-04-12T07:22:48.809Z,40.50
2018-04-12T07:25:17.656Z,41.67
2018-04-12T07:27:47.941Z,43.83
2018-04-12T07:30:17.995Z,38.23
2018-04-12T07:32:48.745Z,43.43
2018-04-12T07:35:18.112Z,43.00
2018-04-12T07:37:46.983Z,40.93
2018-04-12T07:40:20.757Z,44.70
2018-04-12T07:42:51.252Z,45.40
2018-04-12T07:45:23.224Z,45.53
2018-04-12T07:47:53.188Z,46.47
2018-04-12T07:50:24.925Z,45.97
2018-04-12T07:52:53.458Z,45.47
2018-04-12T07:55:34.891Z,46.87
2018-04-12T07:58:04.203Z,53.33
2018-04-12T08:00:34.172Z,50.43
2018-04-12T08:03:03.248Z,55.53
2018-04-12T08:05:31.783Z,54.83
2018-04-12T08:08:01.796Z,55.57
2018-04-12T08:10:32.338Z,56.83
2018-04-12T08:13:01.235Z,59.80
2018-04-12T08:15:35.645Z,58.53
2018-04-12T08:18:04.153Z,61.87
2018-04-12T08:20:37.624Z,58.53
2018-04-12T08:23:06.548Z,57.80
2018-04-12T08:25:42.008Z,56.07
2018-04-12T08:28:11.259Z,57.23
2018-04-12T08:30:42.537Z,56.07
2018-04-12T08:33:11.426Z,53.47
2018-04-12T08:35:52.587Z,55.50
2018-04-12T08:38:22.733Z,54.10
2018-04-12T08:40:51.201Z,48.93
2018-04-12T08:43:19.723Z,53.43
2018-04-12T08:45:50.836Z,52.83
2018-04-12T08:48:20.363Z,54.23
2018-04-12T08:50:53.611Z,48.03
2018-04-12T08:53:23.247Z,52.03
2018-04-12T08:55:53.736Z,50.47
2018-04-12T08:58:22.226Z,48.27
2018-04-12T09:00:56.431Z,51.53
2018-04-12T09:03:24.948Z,47.20
2018-04-12T09:05:58.075Z,48.27
2018-04-12T09:08:27.595Z,44.97
2018-04-12T09:11:00.957Z,47.20
2018-04-12T09:13:30.467Z,48.13
2018-04-12T09:16:03.647Z,47.87
2018-04-12T09:18:32.857Z,42.83
2018-04-12T09:21:03.633Z,45.53
2018-04-12T09:23:32.104Z,43.93
2018-04-12T09:26:01.719Z,45.90
2018-04-12T09:28:31.211Z,46.50
2018-04-12T09:31:00.134Z,45.77
2018-04-12T09:33:29.026Z,46.77
2018-04-12T09:35:59.048Z,45.57
2018-04-12T09:38:27.631Z,46.53
2018-04-12T09:40:56.492Z,45.47
2018-04-12T09:43:26.163Z,45.97
2018-04-12T09:45:55.066Z,46.10
2018-04-12T09:48:24.607Z,41.70
2018-04-12T09:50:53.087Z,43.97
2018-04-12T09:53:22.339Z,43.67
2018-04-12T09:55:51.556Z,43.57
2018-04-12T09:58:24.152Z,43.23
2018-04-12T10:00:56.053Z,43.53
2018-04-12T10:03:27.351Z,44.17
2018-04-12T10:06:00.954Z,43.80
2018-04-12T10:08:30.383Z,45.23
2018-04-12T10:10:59.674Z,47.30
2018-04-12T10:13:31.768Z,46.17
2018-04-12T10:16:01.402Z,45.23
2018-04-12T10:18:33.943Z,47.07
2018-04-12T10:21:02.409Z,45.50
2018-04-12T10:23:43.860Z,46.47
2018-04-12T10:26:14.021Z,46.40
2018-04-12T10:28:42.609Z,46.33
2018-04-12T10:31:11.104Z,47.50
2018-04-12T10:33:41.002Z,45.13
2018-04-12T10:36:09.497Z,43.87
2018-04-12T10:38:42.425Z,46.33
2018-04-12T10:41:11.729Z,43.57
2018-04-12T10:43:45.347Z,45.03
2018-04-12T10:46:13.906Z,43.33
2018-04-12T10:48:47.296Z,44.07
2018-04-12T10:51:16.200Z,41.97
2018-04-12T10:53:51.421Z,40.60
2018-04-12T10:56:21.331Z,47.63
2018-04-12T10:58:53.359Z,42.13
2018-04-12T11:01:21.928Z,41.10
2018-04-12T11:04:03.795Z,43.00
2018-04-12T11:06:33.053Z,44.07
2018-04-12T11:09:02.792Z,44.20
2018-04-12T11:11:32.200Z,46.17
2018-04-12T11:14:01.136Z,44.60
2018-04-12T11:16:30.011Z,44.10
2018-04-12T11:19:11.480Z,44.17
2018-04-12T11:21:40.050Z,43.20
2018-04-12T11:24:08.664Z,43.17
2018-04-12T11:26:37.208Z,45.17
2018-04-12T11:29:09.487Z,44.10
2018-04-12T11:31:38.432Z,44.47
2018-04-12T11:34:11.041Z,44.10
2018-04-12T11:36:41.956Z,43.93
2018-04-12T11:39:14.430Z,44.67
2018-04-12T11:41:44.143Z,44.57
2018-04-12T11:44:17.554Z,45.40
2018-04-12T11:46:47.916Z,45.10
2018-04-12T11:49:18.259Z,44.80
2018-04-12T11:51:47.464Z,43.43
2018-04-12T11:54:23.562Z,231.60
2018-04-12T11:56:53.708Z,45.77
2018-04-12T11:59:22.998Z,47.93
2018-04-12T12:01:52.237Z,45.33
2018-04-12T12:04:24.826Z,44.13
2018-04-12T12:06:53.789Z,52.73
2018-04-12T12:09:27.145Z,45.70
2018-04-12T12:11:56.566Z,44.23
2018-04-12T12:14:38.078Z,42.63
2018-04-12T12:17:06.856Z,43.83
2018-04-12T12:19:36.115Z,44.13
2018-04-12T12:22:04.648Z,45.37
2018-04-12T12:24:34.425Z,43.13
2018-04-12T12:27:03.301Z,44.13
2018-04-12T12:29:36.105Z,44.67
2018-04-12T12:32:05.318Z,43.63
2018-04-12T12:34:38.043Z,43.93
2018-04-12T12:37:07.336Z,42.90
2018-04-12T12:39:40.759Z,42.17
2018-04-12T12:42:09.658Z,43.27
2018-04-12T12:44:43.607Z,41.73
2018-04-12T12:47:12.800Z,39.73
2018-04-12T12:49:45.485Z,41.20
2018-04-12T12:52:15.379Z,43.30
2018-04-12T12:54:49.372Z,42.03
2018-04-12T12:57:18.638Z,40.77
2018-04-12T12:59:59.860Z,40.30
2018-04-12T13:02:28.867Z,38.07
2018-04-12T13:04:58.587Z,39.07
2018-04-12T13:07:27.147Z,38.60
2018-04-12T13:09:57.218Z,39.50
2018-04-12T13:12:26.131Z,38.73
2018-04-12T13:14:58.482Z,39.47
2018-04-12T13:17:26.968Z,37.57
2018-04-12T13:20:00.795Z,37.33
2018-04-12T13:22:30.029Z,37.60
2018-04-12T13:25:03.961Z,37.40
2018-04-12T13:27:32.988Z,36.37
2018-04-12T13:30:15.192Z,38.00
2018-04-12T13:32:44.893Z,35.40
2018-04-12T13:35:14.194Z,34.87
2018-04-12T13:37:43.856Z,35.73
2018-04-12T13:40:13.800Z,35.43
2018-04-12T13:42:42.414Z,33.23
2018-04-12T13:45:14.365Z,36.07
2018-04-12T13:47:44.338Z,33.83
2018-04-12T13:50:26.258Z,34.40
2018-04-12T13:52:56.241Z,33.17
2018-04-12T13:55:24.753Z,34.53
2018-04-12T13:57:53.293Z,34.90
2018-04-12T14:00:25.004Z,34.97
2018-04-12T14:02:54.328Z,36.17
2018-04-12T14:05:24.076Z,36.77
2018-04-12T14:07:52.656Z,37.83
2018-04-12T14:10:34.461Z,34.30
2018-04-12T14:13:04.809Z,32.37
2018-04-12T14:28:46.308Z,31.57
2018-04-12T14:31:16.303Z,31.90
2018-04-12T14:33:45.252Z,33.20
2018-04-12T14:36:13.817Z,33.33
2018-04-12T14:38:43.073Z,33.10
2018-04-12T14:41:12.547Z,33.30
2018-04-12T14:43:41.435Z,32.20
2018-04-12T14:46:10.208Z,31.90
2018-04-12T14:48:43.088Z,31.80
2018-04-12T14:51:11.632Z,33.37
2018-04-12T14:53:45.073Z,32.53
2018-04-12T14:56:15.102Z,32.37
2018-04-12T14:58:48.178Z,31.10
2018-04-12T15:01:20.988Z,30.10
2018-04-12T15:03:50.419Z,32.33
2018-04-12T15:06:20.024Z,31.80
2018-04-12T15:09:01.441Z,31.97
2018-04-12T15:11:30.335Z,30.90
2018-04-12T15:13:58.831Z,29.47
2018-04-12T15:16:27.305Z,30.27
2018-04-12T15:18:59.274Z,30.53
2018-04-12T15:21:27.791Z,29.63
2018-04-12T15:24:01.276Z,29.30
2018-04-12T15:26:31.321Z,29.07
2018-04-12T15:29:05.086Z,29.07
2018-04-12T15:31:34.812Z,29.23
2018-04-12T15:34:07.344Z,28.70
2018-04-12T15:36:36.634Z,28.93
2018-04-12T15:39:09.663Z,28.50
2018-04-12T15:41:38.536Z,29.73
2018-04-12T15:44:11.395Z,28.43
2018-04-12T15:46:39.951Z,28.07
2018-04-12T15:49:13.930Z,27.23
2018-04-12T15:51:42.421Z,28.00
2018-04-12T15:54:15.920Z,28.60
2018-04-12T15:56:44.784Z,28.17
2018-04-12T15:59:26.251Z,26.10
2018-04-12T16:01:55.084Z,24.47
2018-04-12T16:04:23.632Z,23.73
2018-04-12T16:06:53.293Z,23.80
2018-04-12T16:09:23.194Z,22.17
2018-04-12T16:11:51.732Z,23.43
2018-04-12T16:14:23.974Z,24.80
2018-04-12T16:16:52.913Z,25.37
2018-04-12T16:19:26.300Z,23.00
2018-04-12T16:21:54.843Z,24.53
2018-04-12T16:24:36.933Z,24.07
2018-04-12T16:29:39.926Z,21.27
2018-04-12T16:32:09.967Z,20.67
2018-04-12T16:34:38.447Z,19.63
2018-04-12T16:37:06.963Z,18.97
2018-04-12T16:39:37.094Z,18.57
2018-04-12T16:42:05.636Z,18.70
2018-04-12T16:44:38.049Z,16.53
2018-04-12T16:47:07.288Z,19.10
2018-04-12T16:49:38.505Z,19.80
2018-04-12T16:52:08.571Z,19.10
2018-04-12T16:54:41.693Z,19.20
2018-04-12T16:57:11.235Z,19.87
2018-04-12T16:59:44.427Z,19.00
2018-04-12T17:02:13.272Z,20.23
2018-04-12T17:04:46.120Z,19.30
2018-04-12T17:07:15.387Z,19.37
2018-04-12T17:09:51.954Z,19.70
2018-04-12T17:12:20.451Z,18.70
2018-04-12T17:14:51.522Z,19.13
2018-04-12T17:17:20.075Z,17.50
2018-04-12T17:19:53.620Z,17.70
2018-04-12T17:22:22.420Z,18.80
2018-04-12T17:24:58.321Z,18.07
2018-04-12T17:27:26.856Z,18.87
2018-04-12T17:29:58.270Z,17.97
2018-04-12T17:32:27.783Z,18.77
2018-04-12T17:35:00.803Z,19.00
2018-04-12T17:37:30.892Z,18.77
2018-04-12T17:40:09.093Z,19.20
2018-04-12T17:42:37.574Z,20.03
2018-04-12T17:45:07.815Z,19.50
2018-04-12T17:47:36.725Z,19.60
2018-04-12T17:50:18.205Z,18.57
2018-04-12T17:52:47.151Z,17.87
2018-04-12T17:55:15.704Z,17.83
2018-04-12T17:57:45.321Z,17.77
2018-04-12T18:00:14.554Z,17.73
2018-04-12T18:02:43.069Z,16.87
2018-04-12T18:05:24.495Z,17.23
2018-04-12T18:07:53.836Z,16.63
2018-04-12T18:10:22.376Z,15.93
2018-04-12T18:12:52.016Z,16.37
2018-04-12T18:15:20.776Z,20.23
2018-04-12T18:17:50.018Z,17.40
2018-04-12T18:20:31.163Z,16.50
2018-04-12T18:23:00.957Z,16.70
2018-04-12T18:25:30.491Z,18.13
2018-04-12T18:28:00.641Z,16.20
2018-04-12T18:30:29.417Z,16.93
2018-04-12T18:32:58.431Z,18.10
2018-04-12T18:35:28.515Z,17.00
2018-04-12T18:37:57.842Z,16.97
2018-04-12T18:40:30.251Z,16.70
2018-04-12T18:42:59.441Z,16.60
2018-04-12T18:45:41.024Z,17.53
2018-04-12T18:48:10.515Z,17.13
2018-04-12T18:50:39.773Z,17.43
2018-04-12T18:53:08.375Z,17.47
2018-04-12T18:55:38.150Z,16.67
2018-04-12T18:58:07.945Z,17.73
2018-04-12T19:00:40.596Z,16.77
2018-04-12T19:03:09.557Z,17.00
2018-04-12T19:05:42.118Z,17.67
2018-04-12T19:08:11.835Z,19.20
2018-04-12T19:10:44.684Z,17.17
2018-04-12T19:13:13.168Z,18.17
2018-04-12T19:15:55.214Z,17.63
2018-04-12T19:18:24.804Z,17.57
2018-04-12T19:20:53.351Z,17.37
2018-04-12T19:23:21.853Z,21.03
2018-04-12T19:25:52.460Z,19.10
2018-04-12T19:28:22.088Z,16.80
2018-04-12T19:30:55.460Z,16.67
2018-04-12T19:33:24.300Z,18.50
2018-04-12T19:36:05.456Z,20.17
2018-04-12T19:38:35.208Z,22.27
2018-04-12T19:41:04.462Z,18.90
2018-04-12T19:43:34.552Z,21.83
2018-04-12T19:46:03.412Z,21.37
2018-04-12T19:48:32.719Z,23.93
2018-04-12T19:51:04.741Z,19.07
2018-04-12T19:53:33.526Z,18.30
2018-04-12T19:56:09.662Z,19.27
2018-04-12T19:58:38.148Z,20.87
2018-04-12T20:01:11.386Z,24.17
2018-04-12T20:03:40.689Z,25.77
2018-04-12T20:06:13.541Z,19.33
2018-04-12T20:08:43.068Z,23.33
2018-04-12T20:11:15.039Z,19.77
2018-04-12T20:13:43.555Z,26.23
2018-04-12T20:16:17.080Z,26.20
2018-04-12T20:18:46.606Z,19.17
2018-04-12T20:21:19.095Z,22.43
2018-04-12T20:23:47.595Z,20.90
2018-04-12T20:26:29.261Z,23.37
2018-04-12T20:28:58.848Z,20.23
2018-04-12T20:31:27.340Z,19.00
2018-04-12T20:33:56.102Z,18.43
2018-04-12T20:36:25.984Z,18.90
2018-04-12T20:38:54.524Z,21.20
2018-04-12T20:41:27.713Z,20.67
2018-04-12T20:43:56.943Z,20.53
2018-04-12T20:46:29.671Z,20.80
2018-04-12T20:48:59.651Z,23.33
2018-04-12T20:51:40.877Z,25.23
2018-04-12T20:54:11.928Z,25.93
2018-04-12T20:56:41.908Z,23.90
2018-04-12T20:59:11.419Z,22.10
2018-04-12T21:01:40.961Z,20.27
2018-04-12T21:04:09.497Z,18.60
2018-04-12T21:06:39.121Z,21.43
2018-04-12T21:09:09.406Z,27.20
2018-04-12T21:11:42.343Z,26.03
2018-04-12T21:14:11.974Z,22.13
2018-04-12T21:16:43.108Z,27.83
2018-04-12T21:19:12.045Z,20.83
2018-04-12T21:21:45.048Z,22.07
2018-04-12T21:24:14.562Z,25.37
2018-04-12T21:26:47.983Z,22.00
2018-04-12T21:29:16.860Z,23.97
2018-04-12T21:31:50.616Z,21.73
2018-04-12T21:34:20.289Z,20.40
2018-04-12T21:36:52.962Z,21.10
2018-04-12T21:39:22.477Z,20.20
2018-04-12T21:41:55.519Z,23.67
2018-04-12T21:44:23.993Z,25.50
2018-04-12T21:47:01.095Z,23.30
2018-04-12T21:49:30.600Z,26.93
2018-04-12T21:52:00.462Z,50.83
2018-04-12T21:54:29.356Z,26.77
2018-04-12T21:57:03.682Z,22.07
2018-04-12T21:59:32.176Z,22.33
2018-04-12T22:02:05.495Z,25.83
2018-04-12T22:04:35.319Z,22.57
2018-04-12T22:07:17.475Z,21.57
2018-04-12T22:09:47.184Z,22.90
2018-04-12T22:12:17.658Z,22.70
2018-04-12T22:14:47.081Z,22.93
2018-04-12T22:17:17.063Z,24.33
2018-04-12T22:19:47.240Z,29.93
2018-04-12T22:22:15.928Z,40.13
2018-04-12T22:24:45.056Z,35.60
2018-04-12T22:27:17.663Z,42.03
2018-04-12T22:29:47.812Z,37.77
2018-04-12T22:32:20.795Z,35.13
2018-04-12T22:34:49.407Z,27.97
2018-04-12T22:37:22.600Z,24.60
2018-04-12T22:39:52.272Z,26.07
2018-04-12T22:42:24.812Z,26.43
2018-04-12T22:44:54.200Z,23.27
2018-04-12T22:47:35.530Z,23.30
2018-04-12T22:50:04.204Z,22.17
2018-04-12T22:52:33.101Z,23.90
2018-04-12T22:55:02.692Z,23.40
2018-04-12T22:57:31.298Z,24.50
2018-04-12T23:00:00.005Z,23.87
2018-04-12T23:02:33.368Z,25.33
2018-04-12T23:05:03.399Z,22.73
2018-04-12T23:07:35.647Z,22.90
2018-04-12T23:10:04.273Z,22.20
2018-04-12T23:12:37.152Z,23.47
2018-04-12T23:15:06.737Z,25.10
2018-04-12T23:17:39.480Z,26.47
2018-04-12T23:20:09.095Z,26.47
2018-04-12T23:22:42.316Z,28.00
2018-04-12T23:25:10.962Z,27.13
2018-04-12T23:27:44.409Z,26.13
2018-04-12T23:30:13.812Z,25.57
2018-04-12T23:32:46.608Z,34.30
2018-04-12T23:35:15.595Z,34.20
2018-04-12T23:37:48.018Z,34.73
2018-04-12T23:40:17.024Z,32.40
2018-04-12T23:42:49.732Z,30.63
2018-04-12T23:45:19.127Z,26.07
2018-04-12T23:50:23.963Z,29.70
2018-04-12T23:52:56.757Z,37.93
2018-04-12T23:55:25.412Z,37.97
2018-04-12T23:57:59.353Z,33.40
